RYR948 LOWW-EPKK
Flight info
| Callsign | RYR948 |
|---|---|
| Flight time | N/A |
| Altitude | 29000 |
| Route | LEDVA DCT NETIR |
| Aircraft | A320/M-SDE3FGHIRWY/LB1 |
Departure
| Time | 2026-04-22 19:46 |
|---|---|
| Airport | Vienna International Airport (LOWW) |
Arrival
| Time | N/A |
|---|---|
| Airport | Kraków John Paul II International Airport (EPKK) |
| Time | Latitude | Longitude | Altitude | Speed | Heading |
|---|---|---|---|---|---|
| 2026-04-22 18:58 | 48.11590 | 16.56632 | 612 ft | 0 kts | 206° |
| 2026-04-22 19:29 | 48.11596 | 16.56637 | 604 ft | 3 kts | 206° |
| 2026-04-22 19:29 | 48.11613 | 16.56649 | 603 ft | 3 kts | 206° |
| 2026-04-22 19:30 | 48.11623 | 16.56657 | 603 ft | 3 kts | 206° |
| 2026-04-22 19:30 | 48.11644 | 16.56673 | 602 ft | 2 kts | 182° |
| 2026-04-22 19:30 | 48.11662 | 16.56672 | 602 ft | 2 kts | 145° |
| 2026-04-22 19:30 | 48.11671 | 16.56653 | 602 ft | 2 kts | 102° |
| 2026-04-22 19:31 | 48.11672 | 16.56642 | 602 ft | 1 kts | 122° |
| 2026-04-22 19:31 | 48.11668 | 16.56650 | 602 ft | 0 kts | 122° |
| 2026-04-22 19:33 | 48.11664 | 16.56662 | 602 ft | 3 kts | 120° |
| 2026-04-22 19:33 | 48.11652 | 16.56695 | 602 ft | 4 kts | 115° |
| 2026-04-22 19:33 | 48.11630 | 16.56766 | 603 ft | 10 kts | 115° |
| 2026-04-22 19:34 | 48.11599 | 16.56860 | 615 ft | 10 kts | 117° |
| 2026-04-22 19:34 | 48.11592 | 16.56882 | 608 ft | 0 kts | 117° |
| 2026-04-22 19:34 | 48.11571 | 16.56913 | 605 ft | 9 kts | 148° |
| 2026-04-22 19:34 | 48.11506 | 16.56901 | 608 ft | 11 kts | 207° |
| 2026-04-22 19:35 | 48.11495 | 16.56892 | 609 ft | 0 kts | 207° |
| 2026-04-22 19:35 | 48.11468 | 16.56872 | 612 ft | 9 kts | 206° |
| 2026-04-22 19:36 | 48.11395 | 16.56822 | 607 ft | 14 kts | 191° |
| 2026-04-22 19:36 | 48.11325 | 16.56914 | 610 ft | 15 kts | 115° |
| 2026-04-22 19:36 | 48.11290 | 16.57027 | 616 ft | 8 kts | 115° |
| 2026-04-22 19:36 | 48.11262 | 16.57115 | 617 ft | 11 kts | 116° |
| 2026-04-22 19:37 | 48.11226 | 16.57228 | 620 ft | 13 kts | 116° |
| 2026-04-22 19:37 | 48.11179 | 16.57368 | 617 ft | 17 kts | 116° |
| 2026-04-22 19:37 | 48.11120 | 16.57552 | 612 ft | 21 kts | 116° |
| 2026-04-22 19:37 | 48.11044 | 16.57649 | 603 ft | 7 kts | 196° |
| 2026-04-22 19:38 | 48.11022 | 16.57632 | 603 ft | 0 kts | 207° |
| 2026-04-22 19:45 | 48.11008 | 16.57622 | 603 ft | 4 kts | 207° |
| 2026-04-22 19:45 | 48.10973 | 16.57595 | 611 ft | 8 kts | 206° |
| 2026-04-22 19:45 | 48.10929 | 16.57544 | 606 ft | 9 kts | 242° |
| 2026-04-22 19:45 | 48.10939 | 16.57452 | 605 ft | 10 kts | 293° |
| 2026-04-22 19:46 | 48.10999 | 16.57274 | 614 ft | 46 kts | 297° |
| 2026-04-22 19:46 | 48.11240 | 16.56534 | 613 ft | 109 kts | 296° |
| 2026-04-22 19:46 | 48.11642 | 16.55274 | 620 ft | 156 kts | 292° |
| 2026-04-22 19:46 | 48.12078 | 16.53856 | 1278 ft | 148 kts | 292° |
| 2026-04-22 19:47 | 48.12069 | 16.52283 | 1828 ft | 163 kts | 255° |
| 2026-04-22 19:47 | 48.11283 | 16.50876 | 2166 ft | 195 kts | 220° |
| 2026-04-22 19:47 | 48.10091 | 16.49639 | 2452 ft | 221 kts | 219° |
| 2026-04-22 19:47 | 48.08795 | 16.48297 | 3055 ft | 230 kts | 218° |
| 2026-04-22 19:48 | 48.07614 | 16.46711 | 3816 ft | 227 kts | 240° |
| 2026-04-22 19:48 | 48.06846 | 16.44543 | 4250 ft | 247 kts | 250° |
| 2026-04-22 19:48 | 48.06110 | 16.42089 | 4765 ft | 267 kts | 251° |
| 2026-04-22 19:48 | 48.05350 | 16.39514 | 5614 ft | 274 kts | 250° |
| 2026-04-22 19:49 | 48.04573 | 16.36892 | 6531 ft | 278 kts | 250° |
| 2026-04-22 19:49 | 48.03797 | 16.34238 | 7427 ft | 279 kts | 253° |
| 2026-04-22 19:49 | 48.03372 | 16.31421 | 8262 ft | 278 kts | 271° |
| 2026-04-22 19:49 | 48.03435 | 16.28547 | 9108 ft | 279 kts | 278° |
| 2026-04-22 19:50 | 48.03570 | 16.25633 | 9956 ft | 283 kts | 278° |
| 2026-04-22 19:50 | 48.03848 | 16.22703 | 10633 ft | 288 kts | 289° |
| 2026-04-22 19:50 | 48.04599 | 16.19832 | 10878 ft | 306 kts | 303° |
| 2026-04-22 19:50 | 48.05875 | 16.17183 | 11087 ft | 325 kts | 313° |
| 2026-04-22 19:51 | 48.07347 | 16.14506 | 11482 ft | 339 kts | 313° |
| 2026-04-22 19:51 | 48.08857 | 16.11748 | 12133 ft | 345 kts | 313° |
| 2026-04-22 19:51 | 48.10419 | 16.09006 | 12798 ft | 347 kts | 319° |
| 2026-04-22 19:51 | 48.12307 | 16.06776 | 13447 ft | 346 kts | 332° |
| 2026-04-22 19:52 | 48.14492 | 16.05283 | 14130 ft | 346 kts | 346° |
| 2026-04-22 19:52 | 48.16851 | 16.04622 | 14741 ft | 346 kts | 359° |
| 2026-04-22 19:52 | 48.19257 | 16.04773 | 15352 ft | 347 kts | 7° |
| 2026-04-22 19:52 | 48.21668 | 16.05107 | 15982 ft | 349 kts | 7° |
| 2026-04-22 19:53 | 48.24084 | 16.05563 | 16599 ft | 351 kts | 14° |
| 2026-04-22 19:53 | 48.26462 | 16.06724 | 17258 ft | 352 kts | 25° |
| 2026-04-22 19:53 | 48.28508 | 16.08480 | 17883 ft | 354 kts | 36° |
| 2026-04-22 19:53 | 48.30358 | 16.10939 | 18546 ft | 357 kts | 46° |
| 2026-04-22 19:54 | 48.32061 | 16.13680 | 19136 ft | 360 kts | 46° |
| 2026-04-22 19:54 | 48.33780 | 16.16440 | 19759 ft | 362 kts | 46° |
| 2026-04-22 19:54 | 48.35509 | 16.19209 | 20370 ft | 364 kts | 47° |
| 2026-04-22 19:54 | 48.37250 | 16.21992 | 20941 ft | 367 kts | 47° |
| 2026-04-22 19:55 | 48.39000 | 16.24792 | 21507 ft | 369 kts | 47° |
| 2026-04-22 19:55 | 48.40759 | 16.27616 | 22033 ft | 371 kts | 47° |
| 2026-04-22 19:55 | 48.42531 | 16.30460 | 22546 ft | 373 kts | 47° |
| 2026-04-22 19:55 | 48.44312 | 16.33320 | 23041 ft | 376 kts | 48° |
| 2026-04-22 19:56 | 48.46105 | 16.36207 | 23529 ft | 378 kts | 48° |
| 2026-04-22 19:56 | 48.47904 | 16.39110 | 23980 ft | 380 kts | 48° |
| 2026-04-22 19:56 | 48.49719 | 16.42039 | 24365 ft | 382 kts | 49° |
| 2026-04-22 19:56 | 48.51532 | 16.44973 | 24772 ft | 384 kts | 49° |
| 2026-04-22 19:57 | 48.53352 | 16.47924 | 25176 ft | 385 kts | 49° |
| 2026-04-22 19:57 | 48.55183 | 16.50888 | 25567 ft | 386 kts | 49° |
| 2026-04-22 19:57 | 48.57018 | 16.53860 | 25932 ft | 388 kts | 49° |
| 2026-04-22 19:57 | 48.58859 | 16.56882 | 25640 ft | 403 kts | 51° |
| 2026-04-22 19:58 | 48.60731 | 16.60104 | 25890 ft | 405 kts | 50° |
| 2026-04-22 19:58 | 48.62620 | 16.63193 | 26691 ft | 397 kts | 49° |
| 2026-04-22 19:58 | 48.64505 | 16.66208 | 27223 ft | 395 kts | 49° |
| 2026-04-22 19:58 | 48.66402 | 16.69229 | 27644 ft | 396 kts | 50° |
| 2026-04-22 19:59 | 48.68164 | 16.72048 | 27998 ft | 397 kts | 50° |
| 2026-04-22 20:00 | 48.78877 | 16.90329 | 29216 ft | 393 kts | 54° |
| 2026-04-22 20:01 | 48.82215 | 16.96807 | 29215 ft | 393 kts | 55° |
| 2026-04-22 20:01 | 48.85581 | 17.03364 | 29213 ft | 393 kts | 55° |
| 2026-04-22 20:02 | 48.88379 | 17.08815 | 29206 ft | 393 kts | 55° |
| 2026-04-22 20:02 | 48.90865 | 17.13648 | 29204 ft | 393 kts | 54° |
| 2026-04-22 20:03 | 48.94237 | 17.20197 | 29178 ft | 394 kts | 54° |
| 2026-04-22 20:03 | 48.97608 | 17.26770 | 29182 ft | 394 kts | 54° |
| 2026-04-22 20:04 | 49.00983 | 17.33354 | 29188 ft | 395 kts | 54° |
| 2026-04-22 20:04 | 49.04363 | 17.39968 | 29182 ft | 395 kts | 54° |
| 2026-04-22 20:05 | 49.07650 | 17.46421 | 29195 ft | 395 kts | 54° |
| 2026-04-22 20:05 | 49.11027 | 17.53078 | 29207 ft | 398 kts | 54° |
| 2026-04-22 20:06 | 49.14417 | 17.59775 | 29205 ft | 399 kts | 54° |
| 2026-04-22 20:06 | 49.17809 | 17.66486 | 29203 ft | 399 kts | 54° |
| 2026-04-22 20:07 | 49.21194 | 17.73206 | 29206 ft | 399 kts | 54° |
| 2026-04-22 20:07 | 49.24580 | 17.79934 | 29197 ft | 398 kts | 54° |
| 2026-04-22 20:08 | 49.27956 | 17.86661 | 29172 ft | 398 kts | 54° |
| 2026-04-22 20:08 | 49.31322 | 17.93398 | 29177 ft | 399 kts | 54° |
| 2026-04-22 20:09 | 49.33287 | 17.97345 | 29180 ft | 399 kts | 54° |
| 2026-04-22 20:09 | 49.36651 | 18.04106 | 29178 ft | 399 kts | 54° |
| 2026-04-22 20:10 | 49.40016 | 18.10875 | 29174 ft | 399 kts | 54° |
| 2026-04-22 20:10 | 49.43377 | 18.17653 | 29009 ft | 400 kts | 54° |
| 2026-04-22 20:10 | 49.45062 | 18.21056 | 28717 ft | 401 kts | 53° |
| 2026-04-22 20:11 | 49.46750 | 18.24473 | 28434 ft | 402 kts | 53° |
| 2026-04-22 20:11 | 49.48429 | 18.27883 | 27577 ft | 397 kts | 53° |
| 2026-04-22 20:11 | 49.50073 | 18.31225 | 26671 ft | 384 kts | 53° |
| 2026-04-22 20:11 | 49.51647 | 18.34429 | 26077 ft | 372 kts | 53° |
| 2026-04-22 20:12 | 49.53216 | 18.37621 | 25467 ft | 374 kts | 53° |
| 2026-04-22 20:12 | 49.54781 | 18.40803 | 24853 ft | 372 kts | 53° |
| 2026-04-22 20:12 | 49.55810 | 18.42897 | 24456 ft | 370 kts | 53° |
| 2026-04-22 20:12 | 49.57877 | 18.47111 | 23627 ft | 367 kts | 53° |
| 2026-04-22 20:13 | 49.59410 | 18.50240 | 22990 ft | 364 kts | 53° |
| 2026-04-22 20:13 | 49.60906 | 18.53295 | 22403 ft | 361 kts | 53° |
| 2026-04-22 20:13 | 49.62412 | 18.56378 | 21817 ft | 359 kts | 53° |
| 2026-04-22 20:13 | 49.63909 | 18.59450 | 21234 ft | 357 kts | 53° |
| 2026-04-22 20:14 | 49.65391 | 18.62493 | 20658 ft | 354 kts | 53° |
| 2026-04-22 20:14 | 49.66874 | 18.65514 | 20093 ft | 352 kts | 51° |
| 2026-04-22 20:14 | 49.68191 | 18.68662 | 19961 ft | 351 kts | 65° |
| 2026-04-22 20:14 | 49.69086 | 18.72186 | 19882 ft | 353 kts | 67° |
| 2026-04-22 20:15 | 49.69956 | 18.75732 | 19810 ft | 353 kts | 67° |
| 2026-04-22 20:15 | 49.70822 | 18.79274 | 19732 ft | 353 kts | 67° |
| 2026-04-22 20:15 | 49.71695 | 18.82815 | 19678 ft | 352 kts | 67° |
| 2026-04-22 20:15 | 49.72577 | 18.86352 | 19587 ft | 352 kts | 66° |
| 2026-04-22 20:16 | 49.73467 | 18.89897 | 19528 ft | 353 kts | 66° |
| 2026-04-22 20:16 | 49.74359 | 18.93433 | 19450 ft | 353 kts | 66° |
| 2026-04-22 20:16 | 49.75247 | 18.96951 | 19377 ft | 353 kts | 66° |
| 2026-04-22 20:16 | 49.76138 | 19.00498 | 19299 ft | 352 kts | 66° |
| 2026-04-22 20:17 | 49.77022 | 19.04029 | 19197 ft | 351 kts | 66° |
| 2026-04-22 20:17 | 49.77902 | 19.07549 | 19128 ft | 351 kts | 66° |
| 2026-04-22 20:17 | 49.78780 | 19.11068 | 19052 ft | 350 kts | 66° |
| 2026-04-22 20:17 | 49.79659 | 19.14594 | 18481 ft | 354 kts | 66° |
| 2026-04-22 20:18 | 49.80528 | 19.18084 | 17102 ft | 357 kts | 66° |
| 2026-04-22 20:18 | 49.81427 | 19.21699 | 15806 ft | 357 kts | 66° |
| 2026-04-22 20:18 | 49.82309 | 19.25265 | 14690 ft | 354 kts | 66° |
| 2026-04-22 20:18 | 49.83190 | 19.28829 | 14172 ft | 357 kts | 66° |
| 2026-04-22 20:19 | 49.84082 | 19.32435 | 13844 ft | 360 kts | 66° |
| 2026-04-22 20:19 | 49.84977 | 19.36062 | 13551 ft | 361 kts | 66° |
| 2026-04-22 20:19 | 49.85872 | 19.39692 | 13298 ft | 360 kts | 66° |
| 2026-04-22 20:19 | 49.86764 | 19.43314 | 13026 ft | 359 kts | 66° |
| 2026-04-22 20:20 | 49.87648 | 19.46916 | 12752 ft | 358 kts | 66° |
| 2026-04-22 20:20 | 49.88530 | 19.50518 | 12495 ft | 357 kts | 66° |
| 2026-04-22 20:20 | 49.89412 | 19.54123 | 12240 ft | 356 kts | 66° |
| 2026-04-22 20:20 | 49.90289 | 19.57707 | 11981 ft | 355 kts | 66° |
| 2026-04-22 20:21 | 49.91164 | 19.61280 | 11717 ft | 355 kts | 66° |
| 2026-04-22 20:21 | 49.92039 | 19.64864 | 11458 ft | 355 kts | 66° |
| 2026-04-22 20:21 | 49.92912 | 19.68450 | 11206 ft | 354 kts | 66° |
| 2026-04-22 20:21 | 49.93776 | 19.72020 | 10943 ft | 353 kts | 66° |
| 2026-04-22 20:22 | 49.94638 | 19.75589 | 10701 ft | 353 kts | 66° |
| 2026-04-22 20:22 | 49.95487 | 19.79107 | 10452 ft | 352 kts | 66° |
| 2026-04-22 20:22 | 49.96356 | 19.82702 | 10203 ft | 351 kts | 66° |
| 2026-04-22 20:22 | 49.97185 | 19.86149 | 10025 ft | 338 kts | 66° |
| 2026-04-22 20:23 | 49.97983 | 19.89487 | 9883 ft | 322 kts | 66° |
| 2026-04-22 20:23 | 49.98748 | 19.92684 | 9747 ft | 308 kts | 66° |
| 2026-04-22 20:23 | 49.99480 | 19.95742 | 9615 ft | 297 kts | 65° |
| 2026-04-22 20:23 | 50.00160 | 19.98578 | 9494 ft | 287 kts | 65° |
| 2026-04-22 20:24 | 50.00844 | 20.01432 | 9354 ft | 277 kts | 65° |
| 2026-04-22 20:24 | 50.01504 | 20.04195 | 9227 ft | 268 kts | 65° |
| 2026-04-22 20:24 | 50.02142 | 20.06861 | 9078 ft | 259 kts | 65° |
| 2026-04-22 20:24 | 50.02761 | 20.09453 | 8954 ft | 256 kts | 65° |
| 2026-04-22 20:25 | 50.03371 | 20.12115 | 8806 ft | 258 kts | 70° |
| 2026-04-22 20:25 | 50.03740 | 20.14760 | 8672 ft | 242 kts | 73° |
| 2026-04-22 20:25 | 50.04076 | 20.17288 | 8541 ft | 236 kts | 73° |
| 2026-04-22 20:25 | 50.04464 | 20.19744 | 8334 ft | 231 kts | 61° |
| 2026-04-22 20:26 | 50.05303 | 20.21779 | 7942 ft | 220 kts | 45° |
| 2026-04-22 20:26 | 50.06058 | 20.23848 | 7553 ft | 225 kts | 69° |
| 2026-04-22 20:26 | 50.06472 | 20.26224 | 7175 ft | 228 kts | 65° |
| 2026-04-22 20:26 | 50.07001 | 20.28554 | 6800 ft | 230 kts | 64° |
| 2026-04-22 20:27 | 50.07556 | 20.30907 | 6427 ft | 233 kts | 64° |
| 2026-04-22 20:27 | 50.08121 | 20.33286 | 6027 ft | 235 kts | 64° |
| 2026-04-22 20:27 | 50.08793 | 20.35595 | 5622 ft | 231 kts | 47° |
| 2026-04-22 20:27 | 50.10004 | 20.37131 | 5232 ft | 225 kts | 24° |
| 2026-04-22 20:28 | 50.11416 | 20.38160 | 4984 ft | 220 kts | 19° |
| 2026-04-22 20:28 | 50.12839 | 20.38666 | 4971 ft | 201 kts | 358° |
| 2026-04-22 20:28 | 50.14159 | 20.38225 | 4973 ft | 193 kts | 335° |
| 2026-04-22 20:28 | 50.15194 | 20.36958 | 4977 ft | 187 kts | 306° |
| 2026-04-22 20:29 | 50.15480 | 20.34992 | 4984 ft | 196 kts | 266° |
| 2026-04-22 20:29 | 50.15179 | 20.32846 | 4988 ft | 209 kts | 264° |
| 2026-04-22 20:29 | 50.15125 | 20.32437 | 4986 ft | 210 kts | 264° |
| 2026-04-22 20:29 | 50.14839 | 20.30285 | 4985 ft | 212 kts | 264° |
| 2026-04-22 20:30 | 50.14540 | 20.28040 | 4983 ft | 212 kts | 264° |
| 2026-04-22 20:30 | 50.14437 | 20.27275 | 4983 ft | 212 kts | 264° |